createdAt,value
2022-07-25T00:00:43.796Z,59.61
2022-07-25T00:01:43.859Z,59.31
2022-07-25T00:02:43.777Z,60.18
2022-07-25T00:03:43.785Z,60.38
2022-07-25T00:04:43.833Z,59.38
2022-07-25T00:05:43.742Z,60.18
2022-07-25T00:06:43.737Z,59.38
2022-07-25T00:07:43.720Z,59.98
2022-07-25T00:08:43.722Z,60.48
2022-07-25T00:09:43.713Z,60.18
2022-07-25T00:10:43.690Z,59.68
2022-07-25T00:11:43.676Z,59.88
2022-07-25T00:12:43.670Z,59.78
2022-07-25T00:13:43.683Z,59.98
2022-07-25T00:14:43.645Z,60.08
2022-07-25T00:15:43.721Z,60.18
2022-07-25T00:16:43.622Z,59.88
2022-07-25T00:17:43.612Z,60.01
2022-07-25T00:18:43.613Z,60.08
2022-07-25T00:19:43.587Z,59.81
2022-07-25T00:20:43.580Z,60.01
2022-07-25T00:21:43.567Z,59.98
2022-07-25T00:22:43.557Z,59.81
2022-07-25T00:23:43.562Z,60.01
2022-07-25T00:24:43.538Z,60.01
2022-07-25T00:25:43.524Z,59.81
2022-07-25T00:26:43.545Z,59.81
2022-07-25T00:27:43.497Z,59.91
2022-07-25T00:28:43.510Z,59.70
2022-07-25T00:29:43.492Z,60.01
2022-07-25T00:30:43.468Z,59.81
2022-07-25T00:31:43.498Z,59.83
2022-07-25T00:32:43.476Z,59.64
2022-07-25T00:33:43.432Z,59.91
2022-07-25T00:34:43.429Z,59.41
2022-07-25T00:35:43.411Z,59.94
2022-07-25T00:36:43.398Z,59.61
2022-07-25T00:37:43.461Z,60.53
2022-07-25T00:38:43.391Z,60.74
2022-07-25T00:39:43.362Z,60.44
2022-07-25T00:40:43.365Z,60.24
2022-07-25T00:41:43.344Z,61.41
2022-07-25T00:42:43.334Z,61.04
2022-07-25T00:43:43.639Z,61.24
2022-07-25T00:44:43.312Z,61.04
2022-07-25T00:45:43.297Z,61.24
2022-07-25T00:46:43.346Z,61.34
2022-07-25T00:47:43.285Z,61.04
2022-07-25T00:48:43.326Z,61.74
2022-07-25T00:49:43.255Z,61.57
2022-07-25T00:50:43.242Z,61.47
2022-07-25T00:51:43.236Z,61.47
2022-07-25T00:52:43.225Z,61.67
2022-07-25T00:53:43.228Z,61.87
2022-07-25T00:54:43.201Z,61.67
2022-07-25T00:55:43.195Z,61.67
2022-07-25T00:56:43.175Z,61.67
2022-07-25T00:57:43.170Z,61.67
2022-07-25T00:58:43.170Z,61.47
2022-07-25T00:59:43.149Z,61.77
2022-07-25T01:00:43.173Z,61.17
2022-07-25T01:01:43.145Z,61.57
2022-07-25T01:02:43.159Z,61.17
2022-07-25T01:03:43.126Z,61.47
2022-07-25T01:04:43.089Z,61.57
2022-07-25T01:05:43.078Z,61.77
2022-07-25T01:06:43.087Z,61.67
2022-07-25T01:07:43.052Z,61.57
2022-07-25T01:08:43.059Z,61.57
2022-07-25T01:09:43.037Z,61.07
2022-07-25T01:10:43.020Z,61.67
2022-07-25T01:11:43.014Z,61.36
2022-07-25T01:12:43.000Z,61.27
2022-07-25T01:13:43.004Z,61.27
2022-07-25T01:14:42.977Z,61.36
2022-07-25T01:15:43.132Z,61.30
2022-07-25T01:16:42.959Z,61.40
2022-07-25T01:17:42.945Z,61.27
2022-07-25T01:18:42.945Z,61.77
2022-07-25T01:19:42.936Z,61.30
2022-07-25T01:20:42.910Z,61.67
2022-07-25T01:21:42.899Z,61.36
2022-07-25T01:22:42.882Z,60.69
2022-07-25T01:23:42.898Z,60.77
2022-07-25T01:24:42.866Z,60.89
2022-07-25T01:25:42.855Z,61.19
2022-07-25T01:26:42.843Z,60.80
2022-07-25T01:27:42.839Z,60.80
2022-07-25T01:28:43.336Z,60.80
2022-07-25T01:29:42.839Z,61.40
2022-07-25T01:30:42.893Z,61.30
2022-07-25T01:31:42.784Z,61.10
2022-07-25T01:32:42.824Z,61.50
2022-07-25T01:33:42.766Z,61.50
2022-07-25T01:34:42.777Z,61.40
2022-07-25T01:35:43.663Z,60.80
2022-07-25T01:36:42.727Z,61.30
2022-07-25T01:37:45.414Z,61.19
2022-07-25T01:38:42.711Z,60.89
2022-07-25T01:39:42.700Z,61.10
2022-07-25T01:40:42.704Z,60.80
2022-07-25T01:41:42.676Z,60.60
2022-07-25T01:42:42.674Z,61.40
2022-07-25T01:43:42.851Z,61.02
2022-07-25T01:44:42.651Z,60.89
2022-07-25T01:45:42.625Z,60.69
2022-07-25T01:46:42.681Z,60.93
2022-07-25T01:47:42.640Z,61.22
2022-07-25T01:48:42.610Z,60.60
2022-07-25T01:49:43.348Z,61.19
2022-07-25T01:50:42.570Z,60.93
2022-07-25T01:51:42.578Z,61.02
2022-07-25T01:52:42.554Z,61.22
2022-07-25T01:53:43.127Z,61.33
2022-07-25T01:54:43.471Z,61.02
2022-07-25T01:55:42.535Z,61.13
2022-07-25T01:56:42.505Z,61.13
2022-07-25T01:57:50.463Z,61.55
2022-07-25T01:58:42.486Z,61.43
2022-07-25T01:59:42.488Z,61.83
2022-07-25T02:00:42.459Z,61.83
2022-07-25T02:01:42.526Z,61.63
2022-07-25T02:02:42.437Z,61.22
2022-07-25T02:03:42.429Z,61.33
2022-07-25T02:04:42.694Z,61.76
2022-07-25T02:05:42.438Z,61.76
2022-07-25T02:06:42.396Z,61.66
2022-07-25T02:07:42.385Z,62.03
2022-07-25T02:08:42.372Z,62.03
2022-07-25T02:09:42.359Z,61.66
2022-07-25T02:10:42.500Z,61.76
2022-07-25T02:11:42.353Z,61.83
2022-07-25T02:12:42.326Z,61.55
2022-07-25T02:13:42.318Z,61.55
2022-07-25T02:14:42.323Z,61.55
2022-07-25T02:15:42.294Z,61.66
2022-07-25T02:16:42.337Z,61.55
2022-07-25T02:17:42.292Z,61.76
2022-07-25T02:18:42.258Z,61.66
2022-07-25T02:19:42.289Z,61.66
2022-07-25T02:20:42.257Z,61.25
2022-07-25T02:21:42.241Z,61.55
2022-07-25T02:22:42.216Z,61.46
2022-07-25T02:23:42.274Z,61.66
2022-07-25T02:24:42.189Z,61.76
2022-07-25T02:25:42.278Z,61.55
2022-07-25T02:26:42.170Z,61.86
2022-07-25T02:27:42.158Z,61.55
2022-07-25T02:28:42.148Z,61.15
2022-07-25T02:29:42.138Z,61.46
2022-07-25T02:30:42.338Z,61.66
2022-07-25T02:31:42.149Z,61.35
2022-07-25T02:32:42.312Z,61.38
2022-07-25T02:33:42.093Z,61.25
2022-07-25T02:34:42.104Z,61.15
2022-07-25T02:35:42.078Z,61.66
2022-07-25T02:36:42.197Z,61.25
2022-07-25T02:37:42.047Z,61.55
2022-07-25T02:38:42.083Z,61.96
2022-07-25T02:39:42.025Z,61.18
2022-07-25T02:40:42.027Z,61.88
2022-07-25T02:41:41.999Z,61.66
2022-07-25T02:42:42.890Z,61.96
2022-07-25T02:43:41.976Z,61.58
2022-07-25T02:44:42.060Z,61.49
2022-07-25T02:45:42.000Z,61.79
2022-07-25T02:46:41.947Z,61.55
2022-07-25T02:47:41.935Z,62.08
2022-07-25T02:48:42.043Z,61.66
2022-07-25T02:49:41.913Z,61.79
2022-07-25T02:50:41.896Z,61.79
2022-07-25T02:51:41.905Z,61.79
2022-07-25T02:52:41.897Z,61.58
2022-07-25T02:53:58.909Z,61.38
2022-07-25T02:54:42.854Z,62.08
2022-07-25T02:55:41.936Z,61.88
2022-07-25T02:56:41.832Z,61.79
2022-07-25T02:57:41.823Z,61.79
2022-07-25T02:58:41.812Z,62.19
2022-07-25T02:59:41.857Z,61.79
2022-07-25T03:00:41.801Z,61.99
2022-07-25T03:01:41.871Z,61.58
2022-07-25T03:02:41.766Z,61.88
2022-07-25T03:03:41.791Z,61.88
2022-07-25T03:04:41.748Z,61.79
2022-07-25T03:05:41.754Z,61.88
2022-07-25T03:06:41.736Z,61.69
2022-07-25T03:07:41.711Z,61.99
2022-07-25T03:08:41.699Z,62.49
2022-07-25T03:09:41.684Z,61.99
2022-07-25T03:10:41.696Z,62.08
2022-07-25T03:11:41.669Z,62.29
2022-07-25T03:12:42.407Z,62.19
2022-07-25T03:13:41.644Z,61.79
2022-07-25T03:14:41.630Z,62.39
2022-07-25T03:15:41.622Z,61.79
2022-07-25T03:16:41.801Z,62.22
2022-07-25T03:17:41.601Z,62.08
2022-07-25T03:18:41.588Z,62.32
2022-07-25T03:19:41.581Z,61.99
2022-07-25T03:20:41.562Z,61.88
2022-07-25T03:21:41.567Z,62.82
2022-07-25T03:22:41.555Z,62.39
2022-07-25T03:23:41.532Z,61.99
2022-07-25T03:24:41.519Z,62.22
2022-07-25T03:25:41.509Z,62.69
2022-07-25T03:26:41.510Z,62.72
2022-07-25T03:27:41.500Z,62.29
2022-07-25T03:28:41.474Z,62.52
2022-07-25T03:29:41.466Z,62.12
2022-07-25T03:30:41.448Z,62.62
2022-07-25T03:31:41.496Z,62.42
2022-07-25T03:32:41.430Z,62.32
2022-07-25T03:33:41.521Z,62.32
2022-07-25T03:34:41.407Z,62.49
2022-07-25T03:35:41.413Z,62.59
2022-07-25T03:36:41.403Z,62.62
2022-07-25T03:37:41.373Z,62.12
2022-07-25T03:38:41.364Z,62.42
2022-07-25T03:39:41.353Z,62.62
2022-07-25T03:40:41.339Z,62.72
2022-07-25T03:41:41.348Z,62.72
2022-07-25T03:42:41.318Z,62.72
2022-07-25T03:43:41.307Z,62.82
2022-07-25T03:44:41.295Z,62.52
2022-07-25T03:45:41.363Z,62.72
2022-07-25T03:46:41.535Z,62.69
2022-07-25T03:47:41.265Z,63.22
2022-07-25T03:48:41.311Z,63.62
2022-07-25T03:49:41.263Z,62.69
2022-07-25T03:50:41.412Z,63.02
2022-07-25T03:51:41.218Z,62.92
2022-07-25T03:52:41.212Z,62.92
2022-07-25T03:53:41.201Z,62.62
2022-07-25T03:54:41.199Z,62.92
2022-07-25T03:55:41.174Z,63.22
2022-07-25T03:56:43.548Z,63.12
2022-07-25T03:57:41.151Z,63.12
2022-07-25T03:58:41.139Z,63.42
2022-07-25T03:59:41.129Z,62.79
2022-07-25T04:00:41.213Z,62.92
2022-07-25T04:01:41.384Z,63.02
2022-07-25T04:02:41.248Z,62.92
2022-07-25T04:03:41.115Z,62.92
2022-07-25T04:04:41.071Z,62.82
2022-07-25T04:05:44.256Z,63.39
2022-07-25T04:06:42.049Z,62.39
2022-07-25T04:07:41.276Z,62.69
2022-07-25T04:08:41.029Z,62.59
2022-07-25T04:09:41.018Z,62.59
2022-07-25T04:10:41.010Z,62.29
2022-07-25T04:11:40.996Z,62.59
2022-07-25T04:12:40.997Z,62.39
2022-07-25T04:13:40.972Z,62.29
2022-07-25T04:14:40.959Z,62.59
2022-07-25T04:15:40.949Z,62.59
2022-07-25T04:16:41.012Z,62.29
2022-07-25T04:17:40.932Z,62.59
2022-07-25T04:18:40.915Z,62.99
2022-07-25T04:19:40.907Z,62.39
2022-07-25T04:20:40.913Z,62.59
2022-07-25T04:21:40.906Z,62.49
2022-07-25T04:22:44.777Z,62.59
2022-07-25T04:23:41.861Z,62.16
2022-07-25T04:24:41.420Z,61.99
2022-07-25T04:25:40.838Z,62.16
2022-07-25T04:26:40.842Z,62.26
2022-07-25T04:27:40.813Z,61.99
2022-07-25T04:28:40.803Z,62.26
2022-07-25T04:29:40.795Z,61.96
2022-07-25T04:30:40.784Z,62.26
2022-07-25T04:31:40.825Z,62.16
2022-07-25T04:32:40.775Z,61.79
2022-07-25T04:33:40.748Z,62.16
2022-07-25T04:34:40.731Z,61.86
2022-07-25T04:35:40.746Z,61.52
2022-07-25T04:36:40.726Z,61.76
2022-07-25T04:37:40.731Z,61.52
2022-07-25T04:38:40.690Z,61.55
2022-07-25T04:39:40.834Z,61.96
2022-07-25T04:40:40.671Z,61.72
2022-07-25T04:41:40.694Z,61.55
2022-07-25T04:42:40.648Z,61.72
2022-07-25T04:43:44.864Z,61.52
2022-07-25T04:44:41.618Z,61.52
2022-07-25T04:45:40.759Z,61.13
2022-07-25T04:46:40.615Z,61.33
2022-07-25T04:47:40.593Z,61.00
2022-07-25T04:48:40.616Z,60.93
2022-07-25T04:49:40.568Z,61.33
2022-07-25T04:50:40.629Z,60.89
2022-07-25T04:51:40.554Z,60.82
2022-07-25T04:52:40.534Z,60.39
2022-07-25T04:53:40.527Z,60.89
2022-07-25T04:54:40.516Z,60.39
2022-07-25T04:55:40.499Z,60.69
2022-07-25T04:56:40.952Z,60.89
2022-07-25T04:57:40.481Z,60.89
2022-07-25T04:58:40.469Z,60.89
2022-07-25T04:59:40.456Z,59.89
2022-07-25T05:00:40.552Z,59.89
2022-07-25T05:01:40.448Z,60.29
2022-07-25T05:02:40.515Z,59.79
2022-07-25T05:03:40.412Z,59.89
2022-07-25T05:04:45.166Z,59.89
2022-07-25T05:05:41.388Z,60.10
2022-07-25T05:06:40.390Z,59.79
2022-07-25T05:07:40.574Z,59.99
2022-07-25T05:08:40.352Z,60.60
2022-07-25T05:09:40.348Z,60.29
2022-07-25T05:10:40.330Z,60.10
2022-07-25T05:11:45.134Z,59.77
2022-07-25T05:12:41.311Z,59.96
2022-07-25T05:13:40.901Z,59.86
2022-07-25T05:14:40.286Z,60.06
2022-07-25T05:15:40.277Z,59.86
2022-07-25T05:16:40.344Z,59.86
2022-07-25T05:17:40.269Z,60.27
2022-07-25T05:18:40.243Z,60.06
2022-07-25T05:19:40.236Z,59.66
2022-07-25T05:20:40.236Z,60.24
2022-07-25T05:21:40.221Z,60.33
2022-07-25T05:22:40.204Z,59.94
2022-07-25T05:23:40.185Z,59.74
2022-07-25T05:24:40.234Z,60.33
2022-07-25T05:25:40.166Z,60.24
2022-07-25T05:26:40.173Z,59.74
2022-07-25T05:27:40.157Z,59.74
2022-07-25T05:28:40.178Z,60.71
2022-07-25T05:29:40.117Z,60.33
2022-07-25T05:30:40.249Z,60.21
2022-07-25T05:31:40.153Z,59.61
2022-07-25T05:32:40.102Z,59.91
2022-07-25T05:33:40.071Z,60.08
2022-07-25T05:34:40.063Z,59.88
2022-07-25T05:35:40.052Z,60.08
2022-07-25T05:36:44.187Z,59.68
2022-07-25T05:37:41.048Z,60.18
2022-07-25T05:38:40.017Z,60.08
2022-07-25T05:39:40.005Z,58.37
2022-07-25T05:40:40.129Z,58.78
2022-07-25T05:41:40.947Z,58.87
2022-07-25T05:42:39.986Z,58.45
2022-07-25T05:43:39.963Z,58.55
2022-07-25T05:44:39.963Z,58.85
2022-07-25T05:45:40.046Z,58.65
2022-07-25T05:46:39.957Z,58.55
2022-07-25T05:47:39.943Z,58.42
2022-07-25T05:48:39.935Z,58.12
2022-07-25T05:49:39.896Z,57.72
2022-07-25T05:50:39.886Z,57.62
2022-07-25T05:51:39.872Z,56.79
2022-07-25T05:52:39.881Z,57.09
2022-07-25T05:53:39.852Z,57.59
2022-07-25T05:54:39.845Z,57.89
2022-07-25T05:55:40.690Z,56.79
2022-07-25T05:56:39.833Z,56.37
2022-07-25T05:57:39.819Z,56.87
2022-07-25T05:58:39.812Z,56.46
2022-07-25T05:59:39.787Z,56.07
2022-07-25T06:00:39.786Z,55.66
2022-07-25T06:01:39.802Z,55.66
2022-07-25T06:02:40.104Z,55.47
2022-07-25T06:03:39.767Z,55.44
2022-07-25T06:04:39.729Z,56.04
2022-07-25T06:05:39.718Z,55.34
2022-07-25T06:06:39.709Z,55.84
2022-07-25T06:07:39.696Z,55.54
2022-07-25T06:08:39.699Z,55.62
2022-07-25T06:09:39.674Z,55.32
2022-07-25T06:10:39.663Z,54.41
2022-07-25T06:11:54.586Z,54.52
2022-07-25T06:12:40.641Z,54.49
2022-07-25T06:13:39.642Z,54.39
2022-07-25T06:14:39.619Z,54.29
2022-07-25T06:15:39.608Z,54.06
2022-07-25T06:16:39.660Z,54.57
2022-07-25T06:17:39.749Z,53.96
2022-07-25T06:18:39.596Z,53.66
2022-07-25T06:19:39.566Z,54.06
2022-07-25T06:20:39.551Z,54.14
2022-07-25T06:21:39.538Z,52.64
2022-07-25T06:22:39.541Z,53.41
2022-07-25T06:23:39.531Z,52.62
2022-07-25T06:24:39.507Z,52.62
2022-07-25T06:25:39.494Z,53.39
2022-07-25T06:26:39.493Z,52.79
2022-07-25T06:27:39.489Z,52.89
2022-07-25T06:28:39.683Z,52.59
2022-07-25T06:29:39.450Z,52.76
2022-07-25T06:30:39.442Z,52.07
2022-07-25T06:31:39.621Z,52.07
2022-07-25T06:32:39.456Z,51.65
2022-07-25T06:33:39.409Z,51.75
2022-07-25T06:34:39.394Z,51.54
2022-07-25T06:35:39.381Z,51.45
2022-07-25T06:36:39.373Z,52.04
2022-07-25T06:37:39.380Z,51.42
2022-07-25T06:38:39.349Z,51.60
2022-07-25T06:39:42.534Z,50.58
2022-07-25T06:40:40.327Z,49.86
2022-07-25T06:41:39.316Z,49.26
2022-07-25T06:42:39.316Z,49.24
2022-07-25T06:43:39.292Z,48.62
2022-07-25T06:44:39.293Z,47.92
2022-07-25T06:45:39.967Z,48.22
2022-07-25T06:46:39.333Z,48.13
2022-07-25T06:47:39.300Z,48.42
2022-07-25T06:48:39.295Z,48.00
2022-07-25T06:49:39.272Z,47.58
2022-07-25T06:50:39.280Z,47.49
2022-07-25T06:51:39.531Z,47.26
2022-07-25T06:52:39.196Z,47.24
2022-07-25T06:53:39.222Z,46.62
2022-07-25T06:54:39.180Z,46.38
2022-07-25T06:55:39.169Z,45.15
2022-07-25T06:56:39.156Z,44.65
2022-07-25T06:57:39.173Z,45.40
2022-07-25T06:58:39.125Z,42.42
2022-07-25T06:59:39.159Z,43.07
2022-07-25T07:00:39.140Z,42.34
2022-07-25T07:01:39.093Z,41.14
2022-07-25T07:02:39.088Z,41.59
2022-07-25T07:03:39.139Z,39.78
2022-07-25T07:04:39.099Z,39.48
2022-07-25T07:05:39.053Z,39.27
2022-07-25T07:06:39.041Z,38.92
2022-07-25T07:07:39.037Z,37.51
2022-07-25T07:08:39.034Z,36.69
2022-07-25T07:09:39.007Z,35.75
2022-07-25T07:10:38.998Z,34.96
2022-07-25T07:11:38.998Z,33.95
2022-07-25T07:12:38.979Z,33.73
2022-07-25T07:13:38.966Z,33.72
2022-07-25T07:14:38.955Z,32.53
2022-07-25T07:15:38.949Z,32.79
2022-07-25T07:16:38.993Z,32.59
2022-07-25T07:17:38.935Z,31.90
2022-07-25T07:18:38.917Z,32.03
2022-07-25T07:19:38.919Z,32.86
2022-07-25T07:20:38.890Z,33.92
2022-07-25T07:21:39.152Z,34.03
2022-07-25T07:22:38.870Z,32.92
2022-07-25T07:23:38.875Z,32.81
2022-07-25T07:24:43.939Z,32.18
2022-07-25T07:25:40.186Z,31.18
2022-07-25T07:26:38.829Z,30.85
2022-07-25T07:27:38.831Z,30.44
2022-07-25T07:28:38.821Z,29.23
2022-07-25T07:29:38.799Z,28.92
2022-07-25T07:31:13.474Z,29.12
2022-07-25T07:31:39.813Z,28.61
2022-07-25T07:32:38.804Z,28.51
2022-07-25T07:33:38.765Z,27.55
2022-07-25T07:34:38.745Z,28.12
2022-07-25T07:35:38.734Z,28.33
2022-07-25T07:36:39.489Z,27.73
2022-07-25T07:37:43.226Z,28.52
2022-07-25T07:38:39.715Z,27.83
2022-07-25T07:39:38.687Z,28.03
2022-07-25T07:40:38.684Z,27.51
2022-07-25T07:41:38.675Z,27.01
2022-07-25T07:42:38.663Z,26.58
2022-07-25T07:43:38.663Z,25.58
2022-07-25T07:44:38.647Z,25.67
2022-07-25T07:45:38.634Z,25.78
2022-07-25T07:46:38.748Z,25.40
2022-07-25T07:47:38.777Z,25.48
2022-07-25T07:48:38.660Z,25.58
2022-07-25T07:49:38.594Z,24.90
2022-07-25T07:50:38.581Z,25.48
2022-07-25T07:51:38.604Z,25.90
2022-07-25T07:52:38.562Z,26.62
2022-07-25T07:53:39.472Z,26.61
2022-07-25T07:54:38.541Z,27.27
2022-07-25T07:55:38.528Z,26.87
2022-07-25T07:56:38.522Z,25.69
2022-07-25T07:57:38.538Z,26.90
2022-07-25T07:58:46.066Z,27.98
2022-07-25T07:59:38.493Z,27.23
2022-07-25T08:00:38.482Z,27.83
2022-07-25T08:01:38.524Z,28.30
2022-07-25T08:02:39.126Z,27.23
2022-07-25T08:03:38.468Z,27.50
2022-07-25T08:04:38.442Z,26.95
2022-07-25T08:05:38.427Z,26.28
2022-07-25T08:06:38.481Z,26.56
2022-07-25T08:07:38.423Z,26.17
2022-07-25T08:08:38.417Z,25.42
2022-07-25T08:09:38.390Z,26.79
2022-07-25T08:10:38.386Z,26.97
2022-07-25T08:11:38.369Z,26.79
2022-07-25T08:12:38.362Z,27.29
2022-07-25T08:13:38.388Z,27.12
2022-07-25T08:14:38.342Z,27.60
2022-07-25T08:15:38.412Z,28.11
2022-07-25T08:16:38.408Z,27.29
2022-07-25T08:17:38.310Z,26.57
2022-07-25T08:18:38.306Z,26.46
2022-07-25T08:19:38.603Z,26.65
2022-07-25T08:20:38.958Z,26.65
2022-07-25T08:21:38.274Z,27.00
2022-07-25T08:22:38.264Z,26.69
2022-07-25T08:23:38.569Z,26.29
2022-07-25T08:24:38.245Z,26.84
2022-07-25T08:25:38.236Z,25.65
2022-07-25T08:26:38.229Z,25.16
2022-07-25T08:27:38.214Z,25.74
2022-07-25T08:28:38.208Z,25.23
2022-07-25T08:29:38.209Z,25.42
2022-07-25T08:30:38.190Z,24.86
2022-07-25T08:31:38.262Z,25.04
2022-07-25T08:32:38.168Z,24.64
2022-07-25T08:33:38.161Z,25.23
2022-07-25T08:34:38.162Z,24.35
2022-07-25T08:35:38.135Z,24.87
2022-07-25T08:36:38.142Z,25.45
2022-07-25T08:37:38.121Z,25.05
2022-07-25T08:38:38.128Z,25.06
2022-07-25T08:39:38.100Z,25.67
2022-07-25T08:40:38.103Z,26.23
2022-07-25T08:41:38.084Z,25.15
2022-07-25T08:42:38.072Z,25.23
2022-07-25T08:43:38.061Z,25.42
2022-07-25T08:44:38.073Z,25.02
2022-07-25T08:45:38.043Z,24.34
2022-07-25T08:46:38.088Z,24.33
2022-07-25T08:47:38.027Z,24.35
2022-07-25T08:48:38.153Z,25.54
2022-07-25T08:49:38.052Z,25.58
2022-07-25T08:50:37.998Z,26.17
2022-07-25T08:51:37.985Z,26.57
2022-07-25T08:52:37.991Z,26.97
2022-07-25T08:53:38.178Z,27.27
2022-07-25T08:54:37.973Z,26.84
2022-07-25T08:55:37.950Z,25.05
2022-07-25T08:56:37.941Z,25.40
2022-07-25T08:57:37.978Z,24.60
2022-07-25T08:58:38.179Z,24.02
2022-07-25T08:59:37.916Z,24.10
2022-07-25T09:00:37.905Z,23.42
2022-07-25T09:01:37.923Z,23.90
2022-07-25T09:02:37.911Z,23.53
2022-07-25T09:03:37.874Z,23.61
2022-07-25T09:04:37.882Z,23.72
2022-07-25T09:05:37.868Z,23.92
2022-07-25T09:06:37.850Z,23.85
2022-07-25T09:07:37.840Z,25.31
2022-07-25T09:08:38.069Z,25.09
2022-07-25T09:09:37.819Z,23.41
2022-07-25T09:10:37.813Z,23.18
2022-07-25T09:11:37.818Z,22.43
2022-07-25T09:12:38.021Z,22.81
2022-07-25T09:13:37.829Z,23.58
2022-07-25T09:14:37.879Z,23.99
2022-07-25T09:15:37.796Z,23.69
2022-07-25T09:16:39.456Z,23.67
2022-07-25T09:17:37.745Z,22.99
2022-07-25T09:18:37.740Z,23.42
2022-07-25T09:19:37.754Z,23.79
2022-07-25T09:20:37.722Z,23.00
2022-07-25T09:21:37.713Z,22.80
2022-07-25T09:22:37.702Z,24.54
2022-07-25T09:23:37.717Z,26.93
2022-07-25T09:24:37.687Z,27.06
2022-07-25T09:25:37.684Z,26.86
2022-07-25T09:26:37.671Z,26.84
2022-07-25T09:27:37.813Z,26.31
2022-07-25T09:28:37.709Z,25.40
2022-07-25T09:29:37.656Z,25.07
2022-07-25T09:30:37.629Z,24.50
2022-07-25T09:31:37.715Z,24.27
2022-07-25T09:32:38.087Z,23.66
2022-07-25T09:33:37.708Z,23.16
2022-07-25T09:34:37.595Z,22.88
2022-07-25T09:35:37.590Z,23.38
2022-07-25T09:36:37.578Z,23.59
2022-07-25T09:37:37.589Z,23.28
2022-07-25T09:38:37.561Z,22.97
2022-07-25T09:39:40.784Z,22.40
2022-07-25T09:40:40.033Z,24.15
2022-07-25T09:41:37.568Z,25.36
2022-07-25T09:42:37.522Z,24.98
2022-07-25T09:43:37.519Z,25.30
2022-07-25T09:44:37.616Z,24.89
2022-07-25T09:45:37.538Z,24.79
2022-07-25T09:46:37.558Z,25.16
2022-07-25T09:47:37.487Z,24.58
2022-07-25T09:48:37.520Z,25.06
2022-07-25T09:49:37.470Z,24.19
2022-07-25T09:50:37.461Z,23.97
2022-07-25T09:51:37.463Z,24.48
2022-07-25T09:52:37.438Z,24.98
2022-07-25T09:53:37.436Z,25.15
2022-07-25T09:54:37.425Z,24.66
2022-07-25T09:55:37.429Z,24.65
2022-07-25T09:56:37.424Z,25.14
2022-07-25T09:57:37.406Z,24.27
2022-07-25T09:58:37.394Z,23.74
2022-07-25T09:59:37.384Z,23.85
2022-07-25T10:00:37.388Z,24.03
2022-07-25T10:01:38.191Z,22.96
2022-07-25T10:02:37.513Z,24.64
2022-07-25T10:03:37.365Z,24.49
2022-07-25T10:04:37.338Z,24.59
2022-07-25T10:05:37.502Z,24.19
2022-07-25T10:06:37.327Z,24.04
2022-07-25T10:07:37.318Z,23.14
2022-07-25T10:08:37.301Z,22.34
2022-07-25T10:09:37.309Z,22.25
2022-07-25T10:10:37.297Z,22.85
2022-07-25T10:11:37.279Z,22.69
2022-07-25T10:12:37.269Z,24.51
2022-07-25T10:13:37.261Z,25.31
2022-07-25T10:14:37.254Z,25.60
2022-07-25T10:15:37.268Z,25.09
2022-07-25T10:16:37.287Z,24.76
2022-07-25T10:17:37.228Z,24.07
2022-07-25T10:18:37.238Z,23.17
2022-07-25T10:19:37.264Z,23.92
2022-07-25T10:20:37.399Z,23.42
2022-07-25T10:21:37.202Z,22.39
2022-07-25T10:22:55.273Z,24.35
2022-07-25T10:23:38.179Z,24.58
2022-07-25T10:24:37.232Z,24.89
2022-07-25T10:25:37.175Z,25.09
2022-07-25T10:26:37.228Z,24.29
2022-07-25T10:27:37.149Z,24.66
2022-07-25T10:28:37.172Z,23.38
2022-07-25T10:29:37.128Z,22.88
2022-07-25T10:30:37.203Z,22.94
2022-07-25T10:31:37.125Z,22.67
2022-07-25T10:32:37.104Z,22.96
2022-07-25T10:33:37.092Z,22.77
2022-07-25T10:34:37.086Z,22.77
2022-07-25T10:35:37.093Z,23.57
2022-07-25T10:36:37.073Z,23.58
2022-07-25T10:37:37.156Z,24.07
2022-07-25T10:38:37.053Z,24.39
2022-07-25T10:39:37.081Z,25.10
2022-07-25T10:40:37.048Z,25.38
2022-07-25T10:41:37.042Z,24.51
2022-07-25T10:42:37.019Z,24.77
2022-07-25T10:43:37.013Z,23.72
2022-07-25T10:44:37.001Z,24.68
2022-07-25T10:45:38.525Z,23.80
2022-07-25T10:46:37.065Z,24.23
2022-07-25T10:47:36.982Z,22.86
2022-07-25T10:48:37.005Z,22.35
2022-07-25T10:49:37.459Z,22.13
2022-07-25T10:50:55.008Z,23.78
2022-07-25T10:51:41.548Z,23.10
2022-07-25T10:52:36.937Z,22.89
2022-07-25T10:53:36.929Z,21.92
2022-07-25T10:54:36.954Z,21.72
2022-07-25T10:55:36.913Z,22.00
2022-07-25T10:56:36.906Z,21.99
2022-07-25T10:57:45.104Z,22.19
2022-07-25T10:58:37.920Z,21.81
2022-07-25T10:59:36.879Z,21.83
2022-07-25T11:00:36.865Z,22.04
2022-07-25T11:01:36.983Z,22.62
2022-07-25T11:02:36.898Z,22.66
2022-07-25T11:03:36.858Z,22.45
2022-07-25T11:04:36.837Z,22.03
2022-07-25T11:05:36.830Z,22.33
2022-07-25T11:06:36.827Z,23.71
2022-07-25T11:07:36.823Z,23.42
2022-07-25T11:08:36.802Z,22.27
2022-07-25T11:09:36.824Z,23.23
2022-07-25T11:10:36.786Z,23.43
2022-07-25T11:11:36.817Z,24.14
2022-07-25T11:12:36.788Z,23.73
2022-07-25T11:13:36.811Z,23.71
2022-07-25T11:14:36.786Z,22.45
2022-07-25T11:15:36.753Z,23.22
2022-07-25T11:16:36.789Z,22.86
2022-07-25T11:17:36.731Z,23.85
2022-07-25T11:18:36.723Z,24.81
2022-07-25T11:19:36.748Z,24.93
2022-07-25T11:20:36.702Z,25.07
2022-07-25T11:21:36.705Z,26.98
2022-07-25T11:22:36.689Z,28.19
2022-07-25T11:23:36.676Z,28.07
2022-07-25T11:24:36.805Z,27.34
2022-07-25T11:25:36.677Z,27.05
2022-07-25T11:26:36.651Z,27.46
2022-07-25T11:27:36.651Z,28.77
2022-07-25T11:28:37.129Z,29.39
2022-07-25T11:29:36.630Z,28.80
2022-07-25T11:30:36.617Z,28.29
2022-07-25T11:31:36.686Z,28.88
2022-07-25T11:32:36.601Z,28.16
2022-07-25T11:33:38.717Z,26.89
2022-07-25T11:34:36.583Z,26.57
2022-07-25T11:35:36.570Z,26.83
2022-07-25T11:36:36.591Z,27.17
2022-07-25T11:37:36.549Z,28.87
2022-07-25T11:38:36.540Z,28.61
2022-07-25T11:39:36.554Z,29.17
2022-07-25T11:40:36.526Z,29.69
2022-07-25T11:41:36.761Z,29.44
2022-07-25T11:42:36.513Z,29.84
2022-07-25T11:43:36.494Z,29.73
2022-07-25T11:44:36.497Z,29.63
2022-07-25T11:45:36.907Z,29.43
2022-07-25T11:46:36.464Z,29.74
2022-07-25T11:47:36.471Z,29.46
2022-07-25T11:48:36.522Z,29.85
2022-07-25T11:49:36.441Z,29.27
2022-07-25T11:50:36.428Z,29.15
2022-07-25T11:51:36.421Z,29.84
2022-07-25T11:52:36.425Z,30.34
2022-07-25T11:53:36.402Z,30.34
2022-07-25T11:54:36.399Z,30.73
2022-07-25T11:55:36.391Z,29.83
2022-07-25T11:56:44.083Z,29.32
2022-07-25T11:57:37.399Z,29.71
2022-07-25T11:58:36.467Z,29.71
2022-07-25T11:59:36.425Z,29.90
2022-07-25T12:00:36.337Z,29.41
2022-07-25T12:01:36.333Z,28.43
2022-07-25T12:02:36.533Z,28.91
2022-07-25T12:03:36.446Z,28.81
2022-07-25T12:04:36.302Z,28.30
2022-07-25T12:05:36.308Z,28.28
2022-07-25T12:06:36.296Z,28.19
2022-07-25T12:07:36.281Z,29.19
2022-07-25T12:08:36.265Z,28.41
2022-07-25T12:09:39.091Z,28.70
2022-07-25T12:10:36.249Z,28.70
2022-07-25T12:11:36.255Z,29.60
2022-07-25T12:12:36.237Z,29.23
2022-07-25T12:13:36.222Z,29.84
2022-07-25T12:14:36.213Z,29.84
2022-07-25T12:15:36.344Z,30.05
2022-07-25T12:16:36.248Z,30.34
2022-07-25T12:17:36.191Z,30.13
2022-07-25T12:18:36.182Z,29.92
2022-07-25T12:19:36.490Z,29.84
2022-07-25T12:20:36.175Z,29.84
2022-07-25T12:21:36.179Z,28.97
2022-07-25T12:22:36.166Z,29.24
2022-07-25T12:23:36.142Z,29.71
2022-07-25T12:24:36.162Z,28.73
2022-07-25T12:25:36.135Z,29.52
2022-07-25T12:26:36.126Z,29.70
2022-07-25T12:27:38.063Z,29.10
2022-07-25T12:28:36.097Z,28.92
2022-07-25T12:29:36.087Z,28.65
2022-07-25T12:30:36.142Z,29.83
2022-07-25T12:31:36.155Z,28.66
2022-07-25T12:32:36.278Z,29.53
2022-07-25T12:33:36.054Z,29.81
2022-07-25T12:34:36.043Z,29.44
2022-07-25T12:35:36.048Z,29.26
2022-07-25T12:36:36.130Z,29.24
2022-07-25T12:37:36.019Z,29.46
2022-07-25T12:38:36.004Z,29.87
2022-07-25T12:39:36.046Z,30.26
2022-07-25T12:40:35.989Z,29.48
2022-07-25T12:41:35.980Z,29.66
2022-07-25T12:42:36.021Z,30.95
2022-07-25T12:43:35.962Z,30.08
2022-07-25T12:44:35.950Z,29.68
2022-07-25T12:45:36.038Z,29.76
2022-07-25T12:46:35.932Z,29.94
2022-07-25T12:47:35.926Z,29.84
2022-07-25T12:48:35.974Z,29.26
2022-07-25T12:49:35.905Z,29.85
2022-07-25T12:50:35.897Z,29.57
2022-07-25T12:51:35.886Z,28.98
2022-07-25T12:52:35.879Z,29.47